createdAt,value
2022-11-01T00:57:13.342Z,97.3
2022-11-01T01:17:20.260Z,97.3
2022-11-01T02:17:13.164Z,97.3
2022-11-01T02:37:20.089Z,97.5
2022-11-01T03:37:07.982Z,97.9
2022-11-01T03:57:12.912Z,98
2022-11-01T04:37:12.812Z,98.1
2022-11-01T04:57:12.784Z,98.2
2022-11-01T05:17:12.728Z,98.2
2022-11-01T05:57:12.654Z,98.3
2022-11-01T06:17:12.641Z,98.4
2022-11-01T06:37:12.587Z,98.4
2022-11-01T06:57:12.545Z,98.4
2022-11-01T07:17:12.524Z,98.2
2022-11-01T07:37:12.477Z,98.1
2022-11-01T07:57:12.525Z,98
2022-11-01T08:37:07.371Z,93.3
2022-11-01T08:57:12.293Z,92.6
2022-11-01T09:17:19.297Z,93.3
2022-11-01T09:37:14.305Z,89.6
2022-11-01T09:57:12.156Z,88
2022-11-01T10:17:12.103Z,83.8
2022-11-01T10:37:12.040Z,82.5
2022-11-01T10:57:12.000Z,77.6
2022-11-01T11:17:13.993Z,77.9
2022-11-01T11:57:18.875Z,82
2022-11-01T12:17:06.844Z,85.8
2022-11-01T12:57:06.758Z,86.4
2022-11-01T13:17:11.701Z,86.1
2022-11-01T13:57:11.587Z,82.7
2022-11-01T14:17:06.552Z,84.3
2022-11-01T14:37:18.482Z,85.8
2022-11-01T15:17:11.407Z,87.5
2022-11-01T15:37:06.378Z,88.6
2022-11-01T15:57:13.335Z,89.2
2022-11-01T16:17:06.378Z,90.1
2022-11-01T16:37:06.255Z,91
2022-11-01T16:57:11.167Z,92.4
2022-11-01T17:17:13.147Z,94.1
2022-11-01T17:37:11.085Z,93.9
2022-11-01T17:57:18.026Z,95.8
2022-11-01T18:17:10.989Z,95.2
2022-11-01T18:37:17.997Z,95.4
2022-11-01T19:37:10.854Z,96
2022-11-01T19:57:17.862Z,95.6
2022-11-01T20:57:05.779Z,96.1
2022-11-01T21:17:10.639Z,96.4
2022-11-01T21:37:10.598Z,96.1
2022-11-01T21:57:17.554Z,96.1
2022-11-01T22:17:17.539Z,96.6
2022-11-01T22:37:10.490Z,96.9
2022-11-01T22:57:10.462Z,97.5
2022-11-01T23:17:12.448Z,97
2022-11-01T23:37:17.389Z,95.6
2022-11-01T23:57:10.349Z,97.2
